createdAt,value
2018-07-10T04:10:48.039Z,1011.92
2018-07-10T04:11:13.535Z,1011.88
2018-07-10T04:11:39.111Z,1011.92
2018-07-10T04:12:04.564Z,1011.9
2018-07-10T04:12:30.052Z,1011.84
2018-07-10T04:12:55.523Z,1011.86
2018-07-10T04:13:21.016Z,1011.88
2018-07-10T04:13:46.507Z,1011.88
2018-07-10T04:14:11.988Z,1011.82
2018-07-10T04:14:37.499Z,1011.82
2018-07-10T04:15:02.974Z,1011.86
2018-07-10T04:15:28.465Z,1011.89
2018-07-10T04:15:53.944Z,1011.86
2018-07-10T04:16:19.441Z,1011.89
2018-07-10T04:16:44.915Z,1011.84
2018-07-10T04:17:10.411Z,1011.83
2018-07-10T04:17:35.926Z,1011.85
2018-07-10T04:18:01.408Z,1011.84
2018-07-10T04:18:26.904Z,1011.83
2018-07-10T04:19:35.587Z,1011.79
2018-07-10T04:20:01.095Z,1011.8
2018-07-10T04:20:26.567Z,1011.76
2018-07-10T04:20:52.090Z,1011.77
2018-07-10T04:21:17.594Z,1011.81
2018-07-10T04:21:43.082Z,1011.76
2018-07-10T04:22:08.597Z,1011.75
2018-07-10T04:22:34.108Z,1011.78
2018-07-10T04:22:59.592Z,1011.78
2018-07-10T04:23:58.094Z,1011.77
2018-07-10T04:24:23.595Z,1011.71
2018-07-10T04:24:49.077Z,1011.75
2018-07-10T04:26:07.976Z,1011.74
2018-07-10T04:26:33.492Z,1011.71
2018-07-10T04:26:58.978Z,1011.7
2018-07-10T04:27:24.496Z,1011.69
2018-07-10T04:27:49.996Z,1011.69
2018-07-10T04:28:15.462Z,1011.7
2018-07-10T04:29:13.970Z,1011.68
2018-07-10T04:29:39.467Z,1011.67
2018-07-10T04:30:04.953Z,1011.62
2018-07-10T04:30:30.463Z,1011.63
2018-07-10T04:30:55.971Z,1011.62
2018-07-10T04:31:21.469Z,1011.62
2018-07-10T04:31:46.991Z,1011.62
2018-07-10T04:32:12.459Z,1011.63
2018-07-10T04:32:37.991Z,1011.63
2018-07-10T04:33:03.509Z,1011.66
2018-07-10T04:33:28.997Z,1011.61
2018-07-10T04:33:54.494Z,1011.59
2018-07-10T04:34:19.986Z,1011.57
2018-07-10T04:34:45.461Z,1011.57
2018-07-10T04:36:04.407Z,1011.56
2018-07-10T04:36:29.904Z,1011.61
2018-07-10T04:36:55.399Z,1011.61
2018-07-10T04:37:20.917Z,1011.6
2018-07-10T04:37:46.394Z,1011.56
2018-07-10T04:38:11.946Z,1011.61
2018-07-10T04:38:37.461Z,1011.59
2018-07-10T04:39:02.950Z,1011.6
2018-07-10T04:39:28.428Z,1011.59
2018-07-10T04:39:53.935Z,1011.65
2018-07-10T04:40:19.467Z,1011.6
2018-07-10T04:40:44.973Z,1011.62
2018-07-10T04:41:10.466Z,1011.6
2018-07-10T04:41:35.961Z,1011.6
2018-07-10T04:42:01.436Z,1011.6
2018-07-10T04:42:26.955Z,1011.62
2018-07-10T04:42:52.385Z,1011.63
2018-07-10T04:43:17.865Z,1011.65
2018-07-10T04:43:43.366Z,1011.6
2018-07-10T04:44:08.862Z,1011.61
2018-07-10T04:44:34.362Z,1011.62
2018-07-10T04:44:59.870Z,1011.61
2018-07-10T04:45:25.403Z,1011.62
2018-07-10T04:45:50.894Z,1011.62
2018-07-10T04:46:16.399Z,1011.63
2018-07-10T04:46:41.938Z,1011.63
2018-07-10T04:47:07.447Z,1011.62
2018-07-10T04:47:33.057Z,1011.64
2018-07-10T04:47:58.902Z,1011.63
2018-07-10T04:48:24.357Z,1011.59
2018-07-10T04:48:49.834Z,1011.64
2018-07-10T04:49:15.395Z,1011.6
2018-07-10T04:49:40.998Z,1011.6
2018-07-10T04:50:06.467Z,1011.62
2018-07-10T04:50:32.004Z,1011.59
2018-07-10T04:50:57.503Z,1011.64
2018-07-10T04:51:22.988Z,1011.62
2018-07-10T04:52:21.518Z,1011.61
2018-07-10T04:52:47.040Z,1011.64
2018-07-10T04:53:12.708Z,1011.64
2018-07-10T04:53:38.153Z,1011.59
2018-07-10T04:54:03.661Z,1011.62
2018-07-10T04:54:29.409Z,1011.62
2018-07-10T04:54:54.932Z,1011.62
2018-07-10T04:55:20.478Z,1011.59
2018-07-10T04:55:45.944Z,1011.57
2018-07-10T04:56:11.441Z,1011.58
2018-07-10T04:56:36.938Z,1011.6
2018-07-10T04:57:02.444Z,1011.57
2018-07-10T04:57:27.930Z,1011.58
2018-07-10T04:57:53.438Z,1011.55
2018-07-10T04:58:18.978Z,1011.52
2018-07-10T04:58:44.442Z,1011.54
2018-07-10T04:59:09.940Z,1011.58
2018-07-10T04:59:35.556Z,1011.5
2018-07-10T05:00:01.027Z,1011.53
2018-07-10T05:00:26.548Z,1011.49
2018-07-10T05:00:52.032Z,1011.45
2018-07-10T05:01:17.533Z,1011.46
2018-07-10T05:02:21.154Z,1011.48
2018-07-10T05:02:46.648Z,1011.45
2018-07-10T05:03:12.160Z,1011.47
2018-07-10T05:03:37.639Z,1011.48
2018-07-10T05:04:03.137Z,1011.45
2018-07-10T05:04:28.635Z,1011.49
2018-07-10T05:04:54.164Z,1011.47
2018-07-10T05:05:19.643Z,1011.43
2018-07-10T05:05:45.173Z,1011.46
2018-07-10T05:06:10.645Z,1011.42
2018-07-10T05:06:36.145Z,1011.47
2018-07-10T05:07:01.609Z,1011.39
2018-07-10T05:07:27.156Z,1011.43
2018-07-10T05:07:52.637Z,1011.4
2018-07-10T05:08:51.175Z,1011.41
2018-07-10T05:09:16.697Z,1011.38
2018-07-10T05:09:42.198Z,1011.39
2018-07-10T05:10:07.687Z,1011.46
2018-07-10T05:10:33.168Z,1011.46
2018-07-10T05:10:58.649Z,1011.38
2018-07-10T05:11:24.160Z,1011.4
2018-07-10T05:11:49.649Z,1011.4
2018-07-10T05:12:15.127Z,1011.41
2018-07-10T05:12:40.591Z,1011.39
2018-07-10T05:13:06.116Z,1011.39
2018-07-10T05:13:31.612Z,1011.42
2018-07-10T05:13:57.105Z,1011.4
2018-07-10T05:14:22.611Z,1011.32
2018-07-10T05:14:48.106Z,1011.43
2018-07-10T05:15:13.581Z,1011.43
2018-07-10T05:15:39.108Z,1011.41
2018-07-10T05:16:04.623Z,1011.4
2018-07-10T05:16:30.088Z,1011.41
2018-07-10T05:16:55.591Z,1011.45
2018-07-10T05:17:21.184Z,1011.37
2018-07-10T05:17:46.813Z,1011.41
2018-07-10T05:18:12.185Z,1011.41
2018-07-10T05:18:37.819Z,1011.4
2018-07-10T05:19:03.276Z,1011.4
2018-07-10T05:19:29.031Z,1011.37
2018-07-10T05:19:54.830Z,1011.38
2018-07-10T05:20:20.262Z,1011.36
2018-07-10T05:20:45.743Z,1011.34
2018-07-10T05:21:11.316Z,1011.34
2018-07-10T05:21:36.806Z,1011.36
2018-07-10T05:22:02.283Z,1011.36
2018-07-10T05:22:27.777Z,1011.35
2018-07-10T05:22:53.234Z,1011.37
2018-07-10T05:23:18.697Z,1011.37
2018-07-10T05:23:44.197Z,1011.36
2018-07-10T05:24:09.719Z,1011.35
2018-07-10T05:24:35.208Z,1011.29
2018-07-10T05:25:00.689Z,1011.3
2018-07-10T05:25:26.167Z,1011.33
2018-07-10T05:25:51.687Z,1011.27
2018-07-10T05:26:17.175Z,1011.3
2018-07-10T05:26:42.652Z,1011.28
2018-07-10T05:27:08.131Z,1011.31
2018-07-10T05:27:33.655Z,1011.29
2018-07-10T05:27:59.121Z,1011.26
2018-07-10T05:28:24.610Z,1011.32
2018-07-10T05:28:50.177Z,1011.34
2018-07-10T05:29:15.570Z,1011.31
2018-07-10T05:29:41.075Z,1011.31
2018-07-10T05:30:06.583Z,1011.29
2018-07-10T05:30:32.117Z,1011.3
2018-07-10T05:30:57.585Z,1011.27
2018-07-10T05:31:23.096Z,1011.28
2018-07-10T05:31:48.601Z,1011.27
2018-07-10T05:32:14.105Z,1011.3
2018-07-10T05:32:39.560Z,1011.29
2018-07-10T05:33:05.077Z,1011.32
2018-07-10T05:33:30.629Z,1011.3
2018-07-10T05:33:56.136Z,1011.28
2018-07-10T05:34:21.620Z,1011.27
2018-07-10T05:34:47.134Z,1011.33
2018-07-10T05:35:12.629Z,1011.26
2018-07-10T05:35:38.117Z,1011.28
2018-07-10T05:36:03.585Z,1011.29
2018-07-10T05:36:29.088Z,1011.28
2018-07-10T05:36:54.582Z,1011.24
2018-07-10T05:37:20.059Z,1011.23
2018-07-10T05:37:45.541Z,1011.22
2018-07-10T05:38:11.026Z,1011.22
2018-07-10T05:38:36.734Z,1011.23
2018-07-10T05:39:02.252Z,1011.2
2018-07-10T05:39:27.730Z,1011.2
2018-07-10T05:39:53.389Z,1011.21
2018-07-10T05:40:18.896Z,1011.19
2018-07-10T05:40:44.471Z,1011.17
2018-07-10T05:41:09.951Z,1011.14
2018-07-10T05:41:35.428Z,1011.22
2018-07-10T05:42:00.947Z,1011.23
2018-07-10T05:42:26.506Z,1011.18
2018-07-10T05:42:52.139Z,1011.16
2018-07-10T05:43:17.742Z,1011.18
2018-07-10T05:43:43.159Z,1011.15
2018-07-10T05:44:08.676Z,1011.17
2018-07-10T05:44:34.190Z,1011.17
2018-07-10T05:44:59.680Z,1011.15
2018-07-10T05:45:25.195Z,1011.16
2018-07-10T05:45:50.712Z,1011.13
2018-07-10T05:46:16.278Z,1011.15
2018-07-10T05:46:41.791Z,1011.1
2018-07-10T05:47:07.268Z,1011.12
2018-07-10T05:47:32.848Z,1011.12
2018-07-10T05:47:58.380Z,1011.06
2018-07-10T05:48:23.878Z,1011.08
2018-07-10T05:48:49.514Z,1011.08
2018-07-10T05:49:15.031Z,1011.08
2018-07-10T05:49:40.540Z,1011.09
2018-07-10T05:50:06.018Z,1011.09
2018-07-10T05:50:31.503Z,1011.1
2018-07-10T05:50:56.954Z,1011.11
2018-07-10T05:51:22.483Z,1011.07
2018-07-10T05:51:48.041Z,1011.1
2018-07-10T05:52:13.484Z,1011.11
2018-07-10T05:52:39.004Z,1011.13
2018-07-10T05:53:42.661Z,1011.04
2018-07-10T05:54:08.123Z,1011.06
2018-07-10T05:54:33.628Z,1011.08
2018-07-10T05:54:59.123Z,1011.07
2018-07-10T05:56:02.720Z,1011.09
2018-07-10T05:56:28.213Z,1011.06
2018-07-10T05:56:53.707Z,1011.07
2018-07-10T05:57:19.203Z,1011.06
2018-07-10T05:57:44.706Z,1011.08
2018-07-10T05:58:10.174Z,1011.08
2018-07-10T05:58:35.656Z,1011.06
2018-07-10T05:59:01.169Z,1011.07
2018-07-10T05:59:26.653Z,1011.04
2018-07-10T05:59:52.122Z,1011.06
2018-07-10T06:00:17.636Z,1011.04
2018-07-10T06:00:43.123Z,1011.04
2018-07-10T06:01:08.627Z,1011.03
2018-07-10T06:01:34.114Z,1011.04
2018-07-10T06:01:59.624Z,1011.07
2018-07-10T06:02:25.114Z,1011
2018-07-10T06:02:50.649Z,1011
2018-07-10T06:03:16.120Z,1011.01
2018-07-10T06:03:41.620Z,1011.01
2018-07-10T06:04:07.074Z,1010.99
2018-07-10T06:04:32.684Z,1010.99
2018-07-10T06:04:58.118Z,1010.99
2018-07-10T06:05:23.586Z,1010.94
2018-07-10T06:05:49.106Z,1010.99
2018-07-10T06:06:14.590Z,1010.98
2018-07-10T06:06:40.110Z,1010.93
2018-07-10T06:07:05.597Z,1010.98
2018-07-10T06:07:31.097Z,1011.01
2018-07-10T06:07:56.575Z,1010.99
2018-07-10T06:08:22.038Z,1010.97
2018-07-10T06:08:47.548Z,1010.96
2018-07-10T06:09:13.032Z,1010.94
2018-07-10T06:09:38.501Z,1010.94
2018-07-10T06:10:03.991Z,1010.92
2018-07-10T06:10:29.533Z,1010.94
2018-07-10T06:10:54.961Z,1010.96
2018-07-10T06:11:20.496Z,1010.97
2018-07-10T06:11:45.996Z,1010.92
2018-07-10T06:12:11.486Z,1010.9
2018-07-10T06:12:36.981Z,1010.94
2018-07-10T06:13:02.454Z,1010.89
2018-07-10T06:13:27.976Z,1010.91
2018-07-10T06:13:53.476Z,1010.94
2018-07-10T06:14:18.972Z,1010.91
2018-07-10T06:14:44.469Z,1010.96
2018-07-10T06:15:09.974Z,1010.96
2018-07-10T06:15:35.511Z,1010.9
2018-07-10T06:16:00.998Z,1010.93
2018-07-10T06:16:26.490Z,1010.91
2018-07-10T06:16:51.968Z,1010.94
2018-07-10T06:17:17.467Z,1010.92
2018-07-10T06:17:42.955Z,1010.88
2018-07-10T06:18:08.424Z,1010.87
2018-07-10T06:18:33.906Z,1010.94
2018-07-10T06:18:59.417Z,1010.91
2018-07-10T06:19:24.911Z,1010.91
2018-07-10T06:19:50.439Z,1010.95
2018-07-10T06:20:15.907Z,1010.93
2018-07-10T06:20:41.407Z,1010.96
2018-07-10T06:21:06.908Z,1010.96
2018-07-10T06:21:32.432Z,1010.99
2018-07-10T06:21:57.923Z,1010.95
2018-07-10T06:22:23.494Z,1010.95
2018-07-10T06:22:48.946Z,1010.95
2018-07-10T06:23:14.434Z,1010.95
2018-07-10T06:23:39.900Z,1010.98
2018-07-10T06:24:05.397Z,1010.97
2018-07-10T06:24:30.921Z,1010.95
2018-07-10T06:24:56.442Z,1010.97
2018-07-10T06:26:15.673Z,1010.94
2018-07-10T06:26:40.953Z,1010.93
2018-07-10T06:27:06.505Z,1010.94
2018-07-10T06:27:31.957Z,1010.93
2018-07-10T06:27:57.469Z,1010.94
2018-07-10T06:28:22.970Z,1010.95
2018-07-10T06:29:36.751Z,1010.89
2018-07-10T06:30:02.218Z,1010.87
2018-07-10T06:30:27.759Z,1010.87
2018-07-10T06:30:53.215Z,1010.86
2018-07-10T06:31:18.689Z,1010.87
2018-07-10T06:32:17.219Z,1010.88
2018-07-10T06:32:42.715Z,1010.89
2018-07-10T06:33:08.225Z,1010.87
2018-07-10T06:33:33.730Z,1010.86
2018-07-10T06:33:59.215Z,1010.87
2018-07-10T06:34:24.699Z,1010.88
2018-07-10T06:34:50.197Z,1010.86
2018-07-10T06:35:15.694Z,1010.88
2018-07-10T06:35:41.216Z,1010.89
2018-07-10T06:36:06.685Z,1010.87
2018-07-10T06:36:32.233Z,1010.88
2018-07-10T06:36:57.733Z,1010.84
2018-07-10T06:37:23.252Z,1010.83
2018-07-10T06:37:48.778Z,1010.83
2018-07-10T06:38:14.236Z,1010.86
2018-07-10T06:38:39.778Z,1010.89
2018-07-10T06:39:05.272Z,1010.89
2018-07-10T06:39:30.767Z,1010.87
2018-07-10T06:39:56.297Z,1010.87
2018-07-10T06:40:21.816Z,1010.85
2018-07-10T06:40:47.348Z,1010.88
2018-07-10T06:41:12.829Z,1010.84
2018-07-10T06:41:38.337Z,1010.87
2018-07-10T06:42:03.810Z,1010.92
2018-07-10T06:42:29.293Z,1010.91
2018-07-10T06:42:54.894Z,1010.86
2018-07-10T06:43:20.353Z,1010.87
2018-07-10T06:43:45.867Z,1010.89
2018-07-10T06:44:11.377Z,1010.87
2018-07-10T06:44:36.857Z,1010.83
2018-07-10T06:45:02.371Z,1010.9
2018-07-10T06:45:27.865Z,1010.83
2018-07-10T06:45:53.377Z,1010.89
2018-07-10T06:46:18.856Z,1010.9
2018-07-10T06:46:44.344Z,1010.89
2018-07-10T06:47:09.870Z,1010.86
2018-07-10T06:47:35.345Z,1010.85
2018-07-10T06:48:00.849Z,1010.88
2018-07-10T06:48:26.341Z,1010.88
2018-07-10T06:48:51.853Z,1010.86
2018-07-10T06:49:17.361Z,1010.84
2018-07-10T06:49:42.885Z,1010.86
2018-07-10T06:50:08.397Z,1010.85
2018-07-10T06:50:33.896Z,1010.85
2018-07-10T06:50:59.390Z,1010.89
2018-07-10T06:51:24.907Z,1010.83
2018-07-10T06:51:50.641Z,1010.83
2018-07-10T06:52:16.274Z,1010.85
2018-07-10T06:52:41.879Z,1010.88
2018-07-10T06:53:07.520Z,1010.74
2018-07-10T06:53:32.837Z,1010.76
2018-07-10T06:53:58.225Z,1010.79
2018-07-10T06:54:23.769Z,1010.82
2018-07-10T06:54:49.243Z,1010.8
2018-07-10T06:55:14.789Z,1010.8
2018-07-10T06:55:40.281Z,1010.79
2018-07-10T06:56:05.791Z,1010.77
2018-07-10T06:56:31.273Z,1010.77
2018-07-10T06:56:56.732Z,1010.79
2018-07-10T06:57:22.241Z,1010.78
2018-07-10T06:57:47.751Z,1010.79
2018-07-10T06:58:13.256Z,1010.76
2018-07-10T06:58:38.742Z,1010.76
2018-07-10T06:59:04.240Z,1010.77
2018-07-10T06:59:29.822Z,1010.79
2018-07-10T06:59:55.297Z,1010.82
2018-07-10T07:00:20.669Z,1010.75
2018-07-10T07:00:46.281Z,1010.79
2018-07-10T07:01:11.612Z,1010.69
2018-07-10T07:01:37.073Z,1010.78
2018-07-10T07:02:02.550Z,1010.76
2018-07-10T07:02:27.991Z,1010.81
2018-07-10T07:02:53.442Z,1010.77
2018-07-10T07:03:18.908Z,1010.74
2018-07-10T07:03:44.331Z,1010.75
2018-07-10T07:04:09.820Z,1010.77
2018-07-10T07:04:35.290Z,1010.76
2018-07-10T07:05:00.787Z,1010.7
2018-07-10T07:05:26.262Z,1010.76
2018-07-10T07:05:51.714Z,1010.73
2018-07-10T07:06:17.247Z,1010.75
2018-07-10T07:06:42.621Z,1010.76
2018-07-10T07:07:08.084Z,1010.77
2018-07-10T07:07:33.523Z,1010.73
2018-07-10T07:07:59.048Z,1010.76
2018-07-10T07:08:24.439Z,1010.76
2018-07-10T07:08:49.921Z,1010.74
2018-07-10T07:09:15.541Z,1010.74
2018-07-10T07:09:41.011Z,1010.73
2018-07-10T07:10:06.510Z,1010.71
2018-07-10T07:10:31.984Z,1010.67
2018-07-10T07:10:57.507Z,1010.68
2018-07-10T07:11:23.028Z,1010.74
2018-07-10T07:11:48.504Z,1010.7
2018-07-10T07:12:14.015Z,1010.68
2018-07-10T07:12:39.539Z,1010.75
2018-07-10T07:13:05.048Z,1010.67
2018-07-10T07:13:30.564Z,1010.66
2018-07-10T07:13:56.038Z,1010.67
2018-07-10T07:14:21.550Z,1010.7
2018-07-10T07:14:47.024Z,1010.65
2018-07-10T07:15:12.514Z,1010.67
2018-07-10T07:15:38.162Z,1010.72
2018-07-10T07:16:03.643Z,1010.71
2018-07-10T07:17:07.236Z,1010.61
2018-07-10T07:17:32.743Z,1010.69
2018-07-10T07:17:58.208Z,1010.59
2018-07-10T07:18:23.694Z,1010.6
2018-07-10T07:18:49.267Z,1010.63
2018-07-10T07:19:14.854Z,1010.6
2018-07-10T07:19:40.347Z,1010.6
2018-07-10T07:20:05.840Z,1010.59
2018-07-10T07:20:31.316Z,1010.65
2018-07-10T07:20:56.834Z,1010.58
2018-07-10T07:21:22.367Z,1010.58
2018-07-10T07:21:47.855Z,1010.57
2018-07-10T07:22:13.358Z,1010.63
2018-07-10T07:22:38.846Z,1010.56
2018-07-10T07:23:04.441Z,1010.5
2018-07-10T07:23:29.965Z,1010.56
2018-07-10T07:23:55.489Z,1010.63
2018-07-10T07:24:20.969Z,1010.57
2018-07-10T07:24:46.491Z,1010.57
2018-07-10T07:25:11.995Z,1010.57
2018-07-10T07:25:37.460Z,1010.51
2018-07-10T07:26:02.987Z,1010.5
2018-07-10T07:26:28.477Z,1010.5
2018-07-10T07:26:53.974Z,1010.5
2018-07-10T07:27:19.503Z,1010.53
2018-07-10T07:27:44.976Z,1010.55
2018-07-10T07:28:10.469Z,1010.54
2018-07-10T07:28:35.963Z,1010.5
2018-07-10T07:29:01.446Z,1010.51
2018-07-10T07:29:26.938Z,1010.52
2018-07-10T07:29:52.412Z,1010.49
2018-07-10T07:30:17.930Z,1010.52
2018-07-10T07:30:43.435Z,1010.47
2018-07-10T07:31:08.923Z,1010.52
2018-07-10T07:31:34.445Z,1010.5
2018-07-10T07:31:59.885Z,1010.43
2018-07-10T07:32:25.381Z,1010.48
2018-07-10T07:32:50.868Z,1010.47
2018-07-10T07:33:16.348Z,1010.46
2018-07-10T07:33:41.814Z,1010.46
2018-07-10T07:34:07.379Z,1010.47
2018-07-10T07:34:32.892Z,1010.46
2018-07-10T07:34:58.349Z,1010.44
2018-07-10T07:35:23.788Z,1010.4
2018-07-10T07:35:49.270Z,1010.44
2018-07-10T07:36:14.799Z,1010.42
2018-07-10T07:36:40.265Z,1010.46
2018-07-10T07:37:05.792Z,1010.42
2018-07-10T07:37:31.277Z,1010.42
2018-07-10T07:37:56.968Z,1010.41
2018-07-10T07:38:22.471Z,1010.49
2018-07-10T07:38:47.976Z,1010.43
2018-07-10T07:39:13.475Z,1010.43
2018-07-10T07:39:38.986Z,1010.44
2018-07-10T07:40:04.445Z,1010.42
2018-07-10T07:40:29.948Z,1010.44
2018-07-10T07:40:55.499Z,1010.39
2018-07-10T07:41:21.002Z,1010.39
2018-07-10T07:41:46.508Z,1010.4
2018-07-10T07:42:11.995Z,1010.37
2018-07-10T07:42:37.511Z,1010.44
2018-07-10T07:43:03.027Z,1010.33
2018-07-10T07:43:28.538Z,1010.41
2018-07-10T07:43:54.138Z,1010.37
2018-07-10T07:44:19.609Z,1010.37
2018-07-10T07:44:45.196Z,1010.38
2018-07-10T07:45:10.696Z,1010.39
2018-07-10T07:45:36.178Z,1010.35
2018-07-10T07:46:01.681Z,1010.37
2018-07-10T07:46:27.188Z,1010.28
2018-07-10T07:46:52.689Z,1010.31
2018-07-10T07:47:18.211Z,1010.29
2018-07-10T07:47:43.742Z,1010.31
2018-07-10T07:48:09.214Z,1010.26
2018-07-10T07:48:34.704Z,1010.31
2018-07-10T07:49:00.216Z,1010.33
2018-07-10T07:49:25.711Z,1010.3
2018-07-10T07:49:51.230Z,1010.34
2018-07-10T07:50:16.737Z,1010.32
2018-07-10T07:50:42.268Z,1010.3
2018-07-10T07:51:07.761Z,1010.28
2018-07-10T07:51:33.278Z,1010.27
2018-07-10T07:51:58.723Z,1010.24
2018-07-10T07:52:24.255Z,1010.29
2018-07-10T07:52:49.762Z,1010.28
2018-07-10T07:53:15.257Z,1010.24
2018-07-10T07:53:40.743Z,1010.22
2018-07-10T07:54:06.383Z,1010.27
2018-07-10T07:55:20.252Z,1010.2
2018-07-10T07:55:45.834Z,1010.19
2018-07-10T07:56:11.255Z,1010.16
2018-07-10T07:56:36.744Z,1010.2
2018-07-10T07:57:02.220Z,1010.18
2018-07-10T07:57:27.716Z,1010.21
2018-07-10T07:57:53.226Z,1010.18
2018-07-10T07:58:18.721Z,1010.15
2018-07-10T07:58:44.231Z,1010.19
2018-07-10T07:59:09.688Z,1010.17
2018-07-10T07:59:35.201Z,1010.21
2018-07-10T08:00:00.729Z,1010.19
2018-07-10T08:00:26.239Z,1010.18
2018-07-10T08:00:51.731Z,1010.16
2018-07-10T08:01:17.257Z,1010.18
2018-07-10T08:01:42.749Z,1010.16
2018-07-10T08:02:08.232Z,1010.15
2018-07-10T08:02:33.737Z,1010.11
2018-07-10T08:02:59.231Z,1010.12
2018-07-10T08:03:24.772Z,1010.09
2018-07-10T08:03:50.257Z,1010.08
2018-07-10T08:04:15.714Z,1010.08
2018-07-10T08:04:41.191Z,1010.07
2018-07-10T08:05:06.728Z,1010.11
2018-07-10T08:05:32.232Z,1010.06
2018-07-10T08:05:57.742Z,1010.06
2018-07-10T08:06:23.227Z,1010.1
2018-07-10T08:06:48.715Z,1010.06
2018-07-10T08:07:14.218Z,1010.09
2018-07-10T08:07:39.707Z,1010.06
2018-07-10T08:08:05.176Z,1010.06
2018-07-10T08:08:30.665Z,1010.08
2018-07-10T08:08:56.511Z,1010.08
2018-07-10T08:09:21.919Z,1010.03
2018-07-10T08:09:47.389Z,1010.06
2018-07-10T08:10:12.954Z,1010.07
2018-07-10T08:10:38.435Z,1009.98
2018-07-10T08:11:03.925Z,1010.07
2018-07-10T08:11:29.447Z,1009.98
2018-07-10T08:11:54.983Z,1009.99
2018-07-10T08:12:20.504Z,1010
2018-07-10T08:12:45.980Z,1009.96
2018-07-10T08:13:11.530Z,1009.92
2018-07-10T08:13:37.026Z,1009.93
2018-07-10T08:14:02.530Z,1009.94
2018-07-10T08:14:28.037Z,1009.91
2018-07-10T08:14:53.507Z,1009.88
2018-07-10T08:15:18.985Z,1009.88
2018-07-10T08:15:44.494Z,1009.88
2018-07-10T08:16:10.008Z,1009.89
2018-07-10T08:16:35.497Z,1009.84
2018-07-10T08:17:01.038Z,1009.9
2018-07-10T08:17:26.527Z,1009.83
2018-07-10T08:17:52.030Z,1009.82
2018-07-10T08:18:17.505Z,1009.79
2018-07-10T08:18:43.006Z,1009.86
2018-07-10T08:19:08.541Z,1009.87
2018-07-10T08:19:33.981Z,1009.83
2018-07-10T08:19:59.506Z,1009.84
2018-07-10T08:20:24.981Z,1009.84
2018-07-10T08:20:50.479Z,1009.86
2018-07-10T08:21:15.968Z,1009.85
2018-07-10T08:21:41.457Z,1009.91
2018-07-10T08:22:06.984Z,1009.85
2018-07-10T08:22:32.482Z,1009.81
2018-07-10T08:22:57.997Z,1009.78
2018-07-10T08:23:23.572Z,1009.79
2018-07-10T08:23:49.063Z,1009.81
2018-07-10T08:24:14.553Z,1009.73
2018-07-10T08:24:40.134Z,1009.8
2018-07-10T08:25:05.553Z,1009.8
2018-07-10T08:25:31.068Z,1009.74
2018-07-10T08:25:56.555Z,1009.82
2018-07-10T08:26:22.068Z,1009.77
2018-07-10T08:26:47.566Z,1009.77
2018-07-10T08:27:13.088Z,1009.78
2018-07-10T08:27:38.627Z,1009.77
2018-07-10T08:28:04.128Z,1009.76
2018-07-10T08:28:29.663Z,1009.77
2018-07-10T08:28:55.148Z,1009.75
2018-07-10T08:30:03.870Z,1009.73
2018-07-10T08:30:29.348Z,1009.75
2018-07-10T08:30:54.868Z,1009.71
2018-07-10T08:31:20.336Z,1009.68
2018-07-10T08:31:45.851Z,1009.74
2018-07-10T08:32:11.393Z,1009.66
2018-07-10T08:32:36.906Z,1009.73
2018-07-10T08:33:02.416Z,1009.71
2018-07-10T08:33:28.055Z,1009.68
2018-07-10T08:33:53.419Z,1009.72
2018-07-10T08:34:18.933Z,1009.7
2018-07-10T08:34:44.468Z,1009.71
2018-07-10T08:35:09.966Z,1009.69
2018-07-10T08:35:35.609Z,1009.69
2018-07-10T08:36:01.053Z,1009.66
2018-07-10T08:36:26.528Z,1009.71
2018-07-10T08:36:52.217Z,1009.71
2018-07-10T08:37:17.978Z,1009.7
2018-07-10T08:37:43.486Z,1009.65
2018-07-10T08:38:08.955Z,1009.68
2018-07-10T08:38:34.487Z,1009.66
2018-07-10T08:38:59.981Z,1009.66
2018-07-10T08:39:25.480Z,1009.68
2018-07-10T08:39:50.961Z,1009.61
2018-07-10T08:40:16.466Z,1009.63
2018-07-10T08:40:41.943Z,1009.69
2018-07-10T08:41:07.438Z,1009.66
2018-07-10T08:41:32.915Z,1009.63
2018-07-10T08:41:58.428Z,1009.65
2018-07-10T08:42:23.904Z,1009.62
2018-07-10T08:42:49.409Z,1009.63
2018-07-10T08:43:14.903Z,1009.56
2018-07-10T08:43:40.381Z,1009.65
2018-07-10T08:44:05.893Z,1009.56
2018-07-10T08:44:31.395Z,1009.62
2018-07-10T08:44:56.898Z,1009.59
2018-07-10T08:45:22.518Z,1009.63
2018-07-10T08:45:47.921Z,1009.63
2018-07-10T08:46:51.644Z,1009.61
2018-07-10T08:47:17.071Z,1009.56
2018-07-10T08:47:42.569Z,1009.59
2018-07-10T08:48:08.079Z,1009.62
2018-07-10T08:48:33.602Z,1009.63
2018-07-10T08:48:59.097Z,1009.62
2018-07-10T08:49:24.596Z,1009.66
2018-07-10T08:50:28.186Z,1009.66
2018-07-10T08:50:53.681Z,1009.65
2018-07-10T08:51:19.187Z,1009.65
2018-07-10T08:51:44.679Z,1009.6
2018-07-10T08:52:10.189Z,1009.58
2018-07-10T08:52:35.682Z,1009.62
2018-07-10T08:53:01.185Z,1009.55
2018-07-10T08:53:26.685Z,1009.6
2018-07-10T08:53:52.202Z,1009.65
2018-07-10T08:54:17.692Z,1009.66
2018-07-10T08:54:43.217Z,1009.61
2018-07-10T08:55:08.727Z,1009.68
2018-07-10T08:55:34.246Z,1009.66
2018-07-10T08:55:59.698Z,1009.62
2018-07-10T08:56:25.175Z,1009.6
2018-07-10T08:56:50.680Z,1009.63
2018-07-10T08:57:16.187Z,1009.59
2018-07-10T08:57:41.678Z,1009.64
2018-07-10T08:58:07.156Z,1009.63
2018-07-10T08:58:32.650Z,1009.65
2018-07-10T08:58:58.173Z,1009.63
2018-07-10T08:59:23.683Z,1009.64
2018-07-10T08:59:49.261Z,1009.58
2018-07-10T09:00:14.721Z,1009.61
2018-07-10T09:00:40.225Z,1009.51
2018-07-10T09:01:05.740Z,1009.59
2018-07-10T09:01:31.243Z,1009.59
2018-07-10T09:01:56.723Z,1009.57
2018-07-10T09:02:22.253Z,1009.52
2018-07-10T09:02:47.743Z,1009.53
2018-07-10T09:03:13.201Z,1009.52
2018-07-10T09:03:38.856Z,1009.53
2018-07-10T09:04:04.369Z,1009.51
2018-07-10T09:04:29.869Z,1009.51
2018-07-10T09:04:55.375Z,1009.53
2018-07-10T09:05:20.862Z,1009.51
2018-07-10T09:05:46.360Z,1009.43
2018-07-10T09:06:11.849Z,1009.52
2018-07-10T09:06:37.340Z,1009.41
2018-07-10T09:07:02.836Z,1009.45
2018-07-10T09:07:28.326Z,1009.47
2018-07-10T09:07:53.837Z,1009.42
2018-07-10T09:08:19.330Z,1009.5
2018-07-10T09:08:44.835Z,1009.45
2018-07-10T09:09:10.329Z,1009.42
2018-07-10T09:09:35.843Z,1009.43
2018-07-10T09:10:01.313Z,1009.49
2018-07-10T09:10:26.801Z,1009.45
2018-07-10T09:10:52.414Z,1009.44
2018-07-10T09:11:17.801Z,1009.44
2018-07-10T09:11:43.294Z,1009.4
2018-07-10T09:12:08.800Z,1009.42
2018-07-10T09:12:34.300Z,1009.44
2018-07-10T09:12:59.790Z,1009.46
2018-07-10T09:13:25.308Z,1009.48
2018-07-10T09:13:50.785Z,1009.44
2018-07-10T09:14:16.482Z,1009.49
2018-07-10T09:14:41.832Z,1009.42
2018-07-10T09:15:07.383Z,1009.39
2018-07-10T09:15:32.892Z,1009.42
2018-07-10T09:15:58.367Z,1009.44
2018-07-10T09:16:23.877Z,1009.43
2018-07-10T09:16:49.365Z,1009.41
2018-07-10T09:17:14.852Z,1009.42
2018-07-10T09:17:40.366Z,1009.37
2018-07-10T09:18:05.865Z,1009.42
2018-07-10T09:18:31.362Z,1009.42
2018-07-10T09:18:56.859Z,1009.4
2018-07-10T09:19:22.362Z,1009.42
2018-07-10T09:19:47.862Z,1009.42
2018-07-10T09:20:13.375Z,1009.42
2018-07-10T09:20:38.959Z,1009.37
2018-07-10T09:21:04.442Z,1009.41
2018-07-10T09:21:29.945Z,1009.38
2018-07-10T09:21:55.440Z,1009.39
2018-07-10T09:22:20.919Z,1009.39
2018-07-10T09:22:46.402Z,1009.32
2018-07-10T09:23:11.929Z,1009.37
2018-07-10T09:23:37.384Z,1009.33
2018-07-10T09:24:02.895Z,1009.31
2018-07-10T09:24:28.382Z,1009.31
2018-07-10T09:24:53.925Z,1009.31
2018-07-10T09:25:19.393Z,1009.33
2018-07-10T09:25:44.914Z,1009.28
2018-07-10T09:26:10.414Z,1009.28
2018-07-10T09:26:35.902Z,1009.33
2018-07-10T09:27:01.433Z,1009.35
2018-07-10T09:27:26.921Z,1009.33
2018-07-10T09:27:52.430Z,1009.34
2018-07-10T09:28:17.936Z,1009.31
2018-07-10T09:28:43.426Z,1009.33
2018-07-10T09:29:08.921Z,1009.33
2018-07-10T09:29:34.415Z,1009.33
2018-07-10T09:29:59.895Z,1009.32
2018-07-10T09:30:25.398Z,1009.32
2018-07-10T09:30:51.043Z,1009.38
2018-07-10T09:31:16.556Z,1009.33
2018-07-10T09:31:42.044Z,1009.31
2018-07-10T09:32:07.536Z,1009.3
2018-07-10T09:32:33.047Z,1009.28